createdAt,value
2023-08-08T00:02:41.136Z,8.55
2023-08-08T00:06:06.099Z,8.40
2023-08-08T00:09:30.081Z,7.68
2023-08-08T00:12:54.202Z,8.50
2023-08-08T00:16:19.133Z,6.93
2023-08-08T00:19:43.108Z,10.35
2023-08-08T00:23:07.216Z,5.97
2023-08-08T00:26:31.061Z,8.70
2023-08-08T00:29:56.249Z,7.70
2023-08-08T00:33:21.084Z,9.20
2023-08-08T00:36:45.107Z,8.38
2023-08-08T00:40:02.115Z,8.30
2023-08-08T00:43:27.204Z,8.32
2023-08-08T00:46:52.187Z,6.90
2023-08-08T00:50:18.295Z,7.47
2023-08-08T00:53:42.072Z,7.43
2023-08-08T00:57:07.314Z,6.80
2023-08-08T01:00:24.786Z,7.10
2023-08-08T01:03:42.136Z,8.52
2023-08-08T01:07:49.128Z,6.65
2023-08-08T01:11:14.229Z,5.80
2023-08-08T01:14:41.107Z,8.25
2023-08-08T01:18:15.126Z,6.85
2023-08-08T01:21:41.263Z,8.10
2023-08-08T01:25:05.093Z,8.82
2023-08-08T01:28:29.124Z,7.57
2023-08-08T01:31:54.251Z,6.45
2023-08-08T01:35:18.131Z,9.57
2023-08-08T01:38:45.239Z,9.35
2023-08-08T01:42:11.122Z,5.78
2023-08-08T01:45:36.228Z,8.35
2023-08-08T01:49:03.133Z,7.95
2023-08-08T01:52:28.304Z,10.55
2023-08-08T01:55:55.174Z,9.05
2023-08-08T01:59:20.302Z,7.63
2023-08-08T02:02:38.248Z,9.32
2023-08-08T02:05:57.283Z,8.00
2023-08-08T02:09:24.110Z,7.05
2023-08-08T02:12:48.307Z,7.28
2023-08-08T02:16:13.163Z,5.60
2023-08-08T02:19:39.279Z,7.43
2023-08-08T02:23:04.131Z,7.80
2023-08-08T02:26:28.273Z,7.32
2023-08-08T02:29:52.122Z,7.53
2023-08-08T02:33:17.330Z,9.30
2023-08-08T02:36:42.136Z,10.25
2023-08-08T02:40:06.305Z,8.65
2023-08-08T02:43:30.128Z,9.77
2023-08-08T02:46:55.271Z,6.68
2023-08-08T02:50:20.128Z,8.50
2023-08-08T02:53:44.325Z,8.25
2023-08-08T02:57:09.123Z,6.85
2023-08-08T03:00:34.270Z,7.78
2023-08-08T03:03:56.874Z,5.53
2023-08-08T03:07:16.176Z,7.07
2023-08-08T03:10:41.155Z,5.22
2023-08-08T03:14:06.291Z,7.13
2023-08-08T03:17:30.174Z,6.00
2023-08-08T03:20:54.284Z,8.43
2023-08-08T03:24:23.163Z,5.47
2023-08-08T03:27:47.332Z,5.15
2023-08-08T03:31:12.204Z,8.40
2023-08-08T03:34:37.292Z,6.40
2023-08-08T03:38:04.163Z,3.97
2023-08-08T03:41:29.338Z,5.05
2023-08-08T03:44:54.175Z,4.65
2023-08-08T03:48:20.421Z,6.15
2023-08-08T03:51:45.182Z,5.00
2023-08-08T03:55:10.197Z,4.57
2023-08-08T03:58:34.191Z,7.57
2023-08-08T04:01:59.189Z,6.70
2023-08-08T04:05:16.805Z,6.22
2023-08-08T04:08:35.356Z,7.53
2023-08-08T04:12:00.525Z,5.30
2023-08-08T04:15:26.287Z,7.85
2023-08-08T04:18:50.194Z,5.38
2023-08-08T04:22:14.275Z,7.07
2023-08-08T04:25:39.200Z,6.07
2023-08-08T04:29:04.320Z,8.65
2023-08-08T04:32:28.173Z,5.57
2023-08-08T04:35:53.339Z,8.07
2023-08-08T04:39:18.190Z,8.18
2023-08-08T04:42:43.359Z,8.10
2023-08-08T04:46:07.268Z,8.38
2023-08-08T04:49:32.264Z,7.63
2023-08-08T04:52:56.174Z,9.35
2023-08-08T04:56:21.376Z,7.93
2023-08-08T04:59:46.170Z,9.95
2023-08-08T05:03:10.391Z,10.40
2023-08-08T05:06:27.883Z,7.53
2023-08-08T05:09:46.339Z,9.13
2023-08-08T05:13:10.189Z,9.27
2023-08-08T05:16:34.441Z,10.23
2023-08-08T05:19:59.200Z,11.23
2023-08-08T05:23:23.230Z,10.10
2023-08-08T05:26:47.188Z,9.02
2023-08-08T05:30:12.386Z,12.73
2023-08-08T05:33:37.207Z,10.98
2023-08-08T05:37:14.386Z,8.38
2023-08-08T05:40:40.222Z,8.13
2023-08-08T05:44:04.321Z,7.10
2023-08-08T05:47:28.262Z,9.52
2023-08-08T05:50:57.234Z,10.40
2023-08-08T05:54:22.250Z,15.25
2023-08-08T05:57:47.209Z,15.27
2023-08-08T06:01:15.405Z,18.90
2023-08-08T06:04:40.220Z,20.55
2023-08-08T06:08:05.379Z,11.75
2023-08-08T06:11:30.233Z,10.30
2023-08-08T06:14:56.239Z,10.50
2023-08-08T06:18:20.373Z,12.27
2023-08-08T06:21:45.231Z,15.10
2023-08-08T06:25:10.362Z,16.83
2023-08-08T06:28:34.251Z,15.40
2023-08-08T06:31:58.602Z,15.85
2023-08-08T06:35:25.233Z,11.90
2023-08-08T06:38:52.392Z,10.60
2023-08-08T06:42:16.241Z,8.75
2023-08-08T06:45:46.305Z,13.13
2023-08-08T06:49:11.352Z,9.95
2023-08-08T06:52:35.246Z,10.50
2023-08-08T06:56:00.409Z,11.43
2023-08-08T06:59:24.239Z,8.85
2023-08-08T07:02:48.369Z,7.60
2023-08-08T07:06:12.263Z,9.40
2023-08-08T07:09:37.410Z,10.23
2023-08-08T07:13:01.306Z,9.35
2023-08-08T07:16:25.420Z,13.23
2023-08-08T07:19:51.269Z,49.75
2023-08-08T07:23:15.288Z,32.92
2023-08-08T07:26:39.285Z,18.42
2023-08-08T07:30:03.298Z,10.75
2023-08-08T07:33:27.425Z,11.93
2023-08-08T07:36:51.258Z,12.55
2023-08-08T07:40:17.425Z,16.10
2023-08-08T07:43:43.245Z,14.35
2023-08-08T07:47:07.279Z,23.73
2023-08-08T07:50:31.397Z,13.45
2023-08-08T07:53:55.256Z,15.02
2023-08-08T07:57:20.443Z,15.10
2023-08-08T08:00:47.333Z,18.77
2023-08-08T08:04:12.472Z,30.15
2023-08-08T08:07:36.263Z,30.98
2023-08-08T08:11:00.400Z,32.83
2023-08-08T08:14:25.270Z,26.63
2023-08-08T08:17:50.307Z,17.88
2023-08-08T08:21:15.430Z,13.93
2023-08-08T08:24:39.278Z,12.85
2023-08-08T08:28:03.411Z,17.38
2023-08-08T08:31:27.350Z,13.98
2023-08-08T08:34:51.310Z,10.18
2023-08-08T08:38:09.304Z,12.10
2023-08-08T08:41:36.423Z,11.55
2023-08-08T08:45:00.267Z,11.13
2023-08-08T08:48:27.420Z,9.90
2023-08-08T08:51:52.285Z,9.73
2023-08-08T08:55:17.413Z,11.77
2023-08-08T08:58:42.296Z,16.90
2023-08-08T09:02:07.428Z,12.65
2023-08-08T09:05:31.295Z,15.45
2023-08-08T09:09:03.301Z,12.35
2023-08-08T09:12:32.278Z,13.02
2023-08-08T09:15:58.522Z,10.32
2023-08-08T09:19:22.339Z,10.45
2023-08-08T09:22:46.434Z,12.82
2023-08-08T09:26:10.292Z,12.88
2023-08-08T09:29:34.426Z,13.88
2023-08-08T09:33:00.301Z,12.23
2023-08-08T09:36:28.442Z,12.77
2023-08-08T09:39:45.911Z,10.23
2023-08-08T09:43:03.442Z,12.13
2023-08-08T09:46:28.395Z,13.45
2023-08-08T09:49:53.358Z,55.00
2023-08-08T09:53:19.323Z,40.40
2023-08-08T09:56:44.343Z,24.48
2023-08-08T10:00:08.315Z,21.33
2023-08-08T10:03:33.542Z,25.30
2023-08-08T10:06:58.322Z,22.25
2023-08-08T10:10:23.357Z,20.52
2023-08-08T10:13:47.306Z,20.20
2023-08-08T10:17:06.483Z,16.85
2023-08-08T10:20:30.332Z,12.55
2023-08-08T10:23:55.483Z,9.45
2023-08-08T10:27:20.334Z,13.27
2023-08-08T10:30:45.477Z,11.57
2023-08-08T10:34:21.322Z,12.15
2023-08-08T10:37:46.446Z,13.35
2023-08-08T10:41:07.924Z,14.02
2023-08-08T10:44:34.424Z,18.77
2023-08-08T10:47:58.330Z,21.10
2023-08-08T10:51:22.537Z,23.60
2023-08-08T10:54:46.326Z,24.40
2023-08-08T10:58:14.353Z,32.22
2023-08-08T11:01:41.342Z,24.75
2023-08-08T11:05:00.393Z,17.67
2023-08-08T11:08:25.354Z,17.42
2023-08-08T11:11:56.512Z,15.55
2023-08-08T11:15:20.324Z,20.13
2023-08-08T11:18:45.507Z,33.20
2023-08-08T11:22:10.336Z,23.35
2023-08-08T11:25:35.372Z,17.08
2023-08-08T11:29:09.353Z,15.15
2023-08-08T11:32:34.486Z,16.17
2023-08-08T11:36:01.344Z,13.32
2023-08-08T11:39:25.461Z,14.82
2023-08-08T11:42:43.852Z,14.48
2023-08-08T11:46:10.405Z,16.70
2023-08-08T11:49:34.470Z,11.75
2023-08-08T11:53:04.820Z,8.45
2023-08-08T11:56:29.357Z,9.02
2023-08-08T11:59:54.348Z,14.95
2023-08-08T12:03:20.573Z,19.13
2023-08-08T12:06:45.533Z,53.42
2023-08-08T12:10:10.626Z,40.63
2023-08-08T12:13:40.361Z,27.90
2023-08-08T12:17:04.700Z,18.60
2023-08-08T12:20:31.346Z,18.42
2023-08-08T12:23:56.517Z,16.83
2023-08-08T12:27:20.351Z,15.23
2023-08-08T12:30:44.510Z,12.88
2023-08-08T12:34:08.365Z,12.35
2023-08-08T12:37:32.535Z,16.65
2023-08-08T12:40:56.374Z,16.05
2023-08-08T12:44:21.386Z,18.33
2023-08-08T12:47:46.378Z,16.23
2023-08-08T12:51:12.502Z,20.00
2023-08-08T12:54:37.447Z,15.45
2023-08-08T12:58:02.385Z,13.60
2023-08-08T13:01:26.342Z,16.33
2023-08-08T13:04:50.489Z,15.20
2023-08-08T13:08:15.357Z,13.77
2023-08-08T13:11:39.503Z,12.68
2023-08-08T13:15:03.356Z,13.63
2023-08-08T13:18:28.404Z,14.48
2023-08-08T13:21:53.529Z,15.57
2023-08-08T13:25:17.372Z,13.02
2023-08-08T13:28:41.529Z,13.38
2023-08-08T13:32:05.359Z,14.85
2023-08-08T13:35:29.560Z,14.10
2023-08-08T13:38:55.193Z,16.08
2023-08-08T13:42:20.545Z,11.10
2023-08-08T13:45:45.490Z,15.82
2023-08-08T13:49:09.504Z,16.17
2023-08-08T13:52:33.383Z,16.38
2023-08-08T13:55:58.501Z,13.70
2023-08-08T13:59:23.396Z,11.40
2023-08-08T14:02:47.597Z,14.20
2023-08-08T14:06:11.389Z,11.10
2023-08-08T14:09:37.425Z,11.27
2023-08-08T14:13:01.427Z,13.07
2023-08-08T14:16:26.596Z,13.93
2023-08-08T14:19:51.398Z,11.25
2023-08-08T14:23:16.556Z,10.77
2023-08-08T14:26:41.392Z,12.80
2023-08-08T14:30:06.460Z,11.48
2023-08-08T14:33:32.415Z,9.05
2023-08-08T14:36:56.547Z,9.40
2023-08-08T14:40:20.382Z,12.45
2023-08-08T14:43:45.540Z,14.45
2023-08-08T14:47:09.396Z,12.60
2023-08-08T14:50:34.675Z,12.25
2023-08-08T14:53:58.426Z,14.88
2023-08-08T14:57:23.440Z,12.75
2023-08-08T15:00:47.568Z,12.55
2023-08-08T15:04:13.461Z,12.57
2023-08-08T15:07:37.426Z,12.68
2023-08-08T15:11:01.434Z,13.07
2023-08-08T15:14:26.415Z,14.25
2023-08-08T15:17:51.462Z,7.97
2023-08-08T15:21:15.559Z,10.30
2023-08-08T15:24:42.414Z,11.52
2023-08-08T15:28:06.552Z,14.35
2023-08-08T15:31:30.468Z,12.43
2023-08-08T15:34:54.458Z,12.73
2023-08-08T15:38:18.415Z,10.68
2023-08-08T15:41:44.526Z,14.05
2023-08-08T15:45:09.396Z,15.05
2023-08-08T15:48:33.578Z,13.90
2023-08-08T15:51:57.392Z,19.08
2023-08-08T15:55:21.576Z,28.50
2023-08-08T15:58:45.429Z,29.00
2023-08-08T16:02:09.590Z,11.75
2023-08-08T16:05:33.445Z,10.25
2023-08-08T16:08:58.585Z,48.70
2023-08-08T16:12:22.461Z,43.70
2023-08-08T16:15:46.570Z,10.18
2023-08-08T16:19:10.441Z,14.13
2023-08-08T16:22:35.584Z,37.40
2023-08-08T16:26:00.448Z,36.80
2023-08-08T16:29:24.606Z,30.30
2023-08-08T16:32:49.455Z,32.35
2023-08-08T16:36:13.460Z,37.58
2023-08-08T16:39:38.483Z,17.42
2023-08-08T16:43:02.427Z,28.58
2023-08-08T16:46:27.608Z,29.08
2023-08-08T16:49:51.410Z,7.90
2023-08-08T16:53:16.576Z,10.45
2023-08-08T16:56:41.427Z,29.52
2023-08-08T17:00:05.575Z,18.63
2023-08-08T17:03:29.557Z,15.05
2023-08-08T17:06:54.475Z,10.18
2023-08-08T17:10:19.485Z,11.38
2023-08-08T17:13:43.445Z,10.50
2023-08-08T17:17:09.613Z,15.95
2023-08-08T17:20:34.443Z,13.10
2023-08-08T17:23:59.637Z,16.00
2023-08-08T17:27:23.465Z,11.38
2023-08-08T17:30:48.728Z,14.90
2023-08-08T17:34:15.452Z,10.30
2023-08-08T17:37:40.657Z,12.55
2023-08-08T17:41:05.447Z,11.98
2023-08-08T17:44:29.545Z,7.80
2023-08-08T17:47:53.644Z,9.73
2023-08-08T17:51:17.454Z,9.32
2023-08-08T17:54:41.490Z,10.73
2023-08-08T17:58:05.463Z,8.90
2023-08-08T18:01:30.653Z,9.95
2023-08-08T18:04:54.476Z,8.38
2023-08-08T18:08:20.485Z,6.82
2023-08-08T18:11:47.481Z,9.77
2023-08-08T18:15:12.592Z,8.52
2023-08-08T18:18:36.458Z,8.82
2023-08-08T18:22:01.803Z,12.05
2023-08-08T18:25:27.654Z,8.23
2023-08-08T18:28:51.484Z,11.07
2023-08-08T18:32:16.606Z,7.72
2023-08-08T18:35:41.479Z,10.13
2023-08-08T18:39:05.610Z,12.55
2023-08-08T18:42:30.479Z,9.25
2023-08-08T18:45:55.640Z,10.75
2023-08-08T18:49:19.471Z,9.05
2023-08-08T18:52:44.674Z,10.98
2023-08-08T18:56:08.473Z,10.90
2023-08-08T18:59:33.612Z,9.73
2023-08-08T19:02:57.643Z,13.65
2023-08-08T19:06:22.628Z,10.07
2023-08-08T19:09:47.510Z,8.73
2023-08-08T19:13:14.372Z,11.52
2023-08-08T19:16:39.550Z,14.52
2023-08-08T19:20:04.622Z,9.55
2023-08-08T19:23:29.508Z,14.95
2023-08-08T19:26:54.483Z,11.48
2023-08-08T19:30:18.682Z,12.98
2023-08-08T19:33:48.694Z,21.38
2023-08-08T19:37:24.697Z,14.90
2023-08-08T19:40:43.116Z,13.65
2023-08-08T19:44:00.603Z,12.23
2023-08-08T19:47:25.526Z,11.48
2023-08-08T19:50:51.624Z,19.98
2023-08-08T19:54:15.475Z,24.48
2023-08-08T19:57:39.517Z,13.35
2023-08-08T20:01:04.521Z,11.90
2023-08-08T20:04:28.666Z,9.52
2023-08-08T20:07:53.443Z,15.77
2023-08-08T20:11:19.620Z,18.50
2023-08-08T20:14:43.507Z,19.05
2023-08-08T20:18:08.524Z,12.90
2023-08-08T20:21:32.667Z,22.63
2023-08-08T20:24:56.498Z,29.33
2023-08-08T20:28:21.665Z,25.23
2023-08-08T20:31:45.489Z,15.02
2023-08-08T20:35:10.651Z,24.35
2023-08-08T20:38:35.501Z,21.83
2023-08-08T20:41:59.956Z,15.65
2023-08-08T20:45:25.604Z,14.02
2023-08-08T20:48:49.521Z,14.00
2023-08-08T20:52:13.530Z,13.05
2023-08-08T20:55:38.672Z,15.10
2023-08-08T20:59:03.568Z,12.90
2023-08-08T21:02:27.692Z,7.53
2023-08-08T21:05:51.555Z,9.23
2023-08-08T21:09:19.676Z,7.55
2023-08-08T21:12:44.529Z,6.20
2023-08-08T21:16:08.653Z,6.72
2023-08-08T21:19:31.528Z,7.60
2023-08-08T21:22:56.556Z,8.30
2023-08-08T21:26:26.200Z,7.88
2023-08-08T21:30:00.654Z,6.53
2023-08-08T21:33:24.535Z,5.43
2023-08-08T21:36:48.546Z,6.30
2023-08-08T21:40:11.536Z,7.57
2023-08-08T21:43:36.693Z,8.50
2023-08-08T21:47:02.807Z,8.23
2023-08-08T21:50:28.735Z,8.40
2023-08-08T21:53:53.541Z,6.78
2023-08-08T21:57:17.561Z,7.95
2023-08-08T22:00:42.613Z,5.38
2023-08-08T22:04:06.568Z,8.40
2023-08-08T22:07:31.564Z,7.22
2023-08-08T22:10:54.723Z,7.25
2023-08-08T22:14:19.549Z,7.43
2023-08-08T22:17:53.354Z,9.40
2023-08-08T22:21:18.546Z,5.50
2023-08-08T22:24:44.581Z,7.80
2023-08-08T22:28:08.598Z,7.75
2023-08-08T22:31:33.541Z,6.88
2023-08-08T22:34:57.692Z,6.80
2023-08-08T22:38:21.571Z,6.43
2023-08-08T22:41:45.685Z,7.22
2023-08-08T22:45:03.177Z,6.82
2023-08-08T22:48:21.580Z,7.03
2023-08-08T22:51:46.581Z,6.32
2023-08-08T22:55:12.592Z,6.82
2023-08-08T22:58:37.604Z,6.00
2023-08-08T23:02:02.615Z,6.18
2023-08-08T23:05:26.615Z,4.72
2023-08-08T23:08:50.606Z,6.03
2023-08-08T23:12:14.584Z,7.43
2023-08-08T23:15:38.606Z,6.18
2023-08-08T23:19:03.720Z,5.45
2023-08-08T23:22:27.564Z,6.05
2023-08-08T23:25:54.625Z,3.85
2023-08-08T23:29:19.569Z,7.32
2023-08-08T23:32:53.546Z,6.47
2023-08-08T23:36:19.582Z,7.68
2023-08-08T23:39:44.616Z,6.53
2023-08-08T23:43:09.602Z,5.43
2023-08-08T23:46:33.606Z,5.82
2023-08-08T23:49:57.592Z,6.25
2023-08-08T23:53:22.702Z,6.15
2023-08-08T23:56:46.599Z,7.25
